Terminal Aerodrome Forecast
Issued by NWS Charleston, WV

Current Version | Previous Version | Text Only | Print | Product List | Glossary Off
Versions: 1 2 3 4 5 6 7 8 9 10 11 12 13 14 15 16 17 18 19 20 21 22 23

000
FTUS41 KRLX 240600 RRA
TAFEKN
TAF
KEKN 240601Z 2406/2506 00000KT 6SM BR OVC025
     FM241400 00000KT P6SM BKN025
     FM241600 29004KT P6SM BKN035
     FM242100 30005KT P6SM BKN030
     FM242200 VRB03KT P6SM BKN040
     FM250400 13004KT 6SM -SHRA BR BKN050=

USA.gov is the U.S. government's official web portal to all federal, state and local government web resources and services.